createdAt,value
2022-08-05T00:02:07.992Z,0.30
2022-08-05T00:04:38.399Z,0.30
2022-08-05T00:07:27.063Z,0.40
2022-08-05T00:09:53.362Z,0.30
2022-08-05T00:12:21.337Z,0.30
2022-08-05T00:14:48.342Z,0.40
2022-08-05T00:17:19.591Z,0.30
2022-08-05T00:20:02.599Z,0.22
2022-08-05T00:22:29.877Z,0.40
2022-08-05T00:24:57.293Z,0.20
2022-08-05T00:27:28.514Z,0.30
2022-08-05T00:30:04.963Z,0.30
2022-08-05T00:32:37.802Z,0.40
2022-08-05T00:35:07.862Z,0.20
2022-08-05T00:37:35.612Z,0.35
2022-08-05T00:40:28.179Z,0.63
2022-08-05T00:42:59.364Z,0.37
2022-08-05T00:45:38.046Z,0.37
2022-08-05T00:48:07.031Z,0.20
2022-08-05T00:50:34.250Z,0.30
2022-08-05T00:53:00.577Z,0.30
2022-08-05T00:55:42.217Z,0.40
2022-08-05T00:58:13.861Z,0.30
2022-08-05T01:00:42.213Z,0.20
2022-08-05T01:03:10.309Z,0.30
2022-08-05T01:05:40.311Z,0.60
2022-08-05T01:08:39.826Z,0.70
2022-08-05T01:11:07.499Z,0.20
2022-08-05T01:13:58.765Z,0.25
2022-08-05T01:16:34.717Z,0.43
2022-08-05T01:19:11.111Z,0.40
2022-08-05T01:22:05.368Z,0.25
2022-08-05T01:24:50.089Z,0.20
2022-08-05T01:27:50.549Z,0.25
2022-08-05T01:30:34.675Z,0.20
2022-08-05T01:33:03.861Z,0.40
2022-08-05T01:35:50.836Z,0.40
2022-08-05T01:38:24.737Z,0.30
2022-08-05T01:40:54.542Z,0.45
2022-08-05T01:43:24.153Z,0.30
2022-08-05T01:45:54.089Z,0.43
2022-08-05T01:48:25.375Z,0.40
2022-08-05T01:50:52.490Z,0.20
2022-08-05T01:53:54.500Z,0.40
2022-08-05T01:56:09.656Z,0.20
2022-08-05T01:58:41.036Z,0.37
2022-08-05T02:01:24.553Z,0.30
2022-08-05T02:03:53.331Z,0.60
2022-08-05T02:06:37.355Z,0.60
2022-08-05T02:09:05.729Z,0.20
2022-08-05T02:11:52.558Z,0.70
2022-08-05T02:14:28.054Z,0.25
2022-08-05T02:16:55.612Z,0.28
2022-08-05T02:19:28.330Z,0.20
2022-08-05T02:22:04.331Z,0.20
2022-08-05T02:24:37.551Z,0.30
2022-08-05T02:27:09.870Z,0.40
2022-08-05T02:29:58.921Z,0.20
2022-08-05T02:32:29.428Z,0.20
2022-08-05T02:35:13.353Z,0.20
2022-08-05T02:37:47.723Z,0.30
2022-08-05T02:40:21.481Z,0.30
2022-08-05T02:42:52.774Z,0.30
2022-08-05T02:45:20.189Z,0.20
2022-08-05T02:48:07.458Z,0.20
2022-08-05T02:50:38.985Z,0.30
2022-08-05T02:53:15.955Z,0.30
2022-08-05T02:55:53.764Z,0.37
2022-08-05T02:58:23.233Z,0.35
2022-08-05T03:00:55.618Z,0.30
2022-08-05T03:03:23.613Z,0.20
2022-08-05T03:06:56.395Z,0.37
2022-08-05T03:08:39.098Z,0.30
2022-08-05T03:11:54.861Z,0.30
2022-08-05T03:14:24.337Z,0.30
2022-08-05T03:16:53.482Z,0.20
2022-08-05T03:19:34.579Z,0.40
2022-08-05T03:22:04.747Z,0.45
2022-08-05T03:24:44.780Z,0.20
2022-08-05T03:27:14.316Z,0.20
2022-08-05T03:29:44.837Z,0.40
2022-08-05T03:32:31.059Z,1.98
2022-08-05T03:34:57.801Z,0.30
2022-08-05T03:37:24.945Z,0.57
2022-08-05T03:39:58.746Z,0.20
2022-08-05T03:42:29.074Z,0.27
2022-08-05T03:44:56.007Z,0.20
2022-08-05T03:47:23.584Z,0.50
2022-08-05T03:49:51.282Z,0.45
2022-08-05T03:52:50.258Z,0.30
2022-08-05T03:56:03.748Z,0.20
2022-08-05T03:58:05.667Z,0.20
2022-08-05T04:00:32.498Z,0.43
2022-08-05T04:03:00.536Z,0.32
2022-08-05T04:05:33.753Z,0.28
2022-08-05T04:08:14.585Z,0.30
2022-08-05T04:10:50.189Z,0.30
2022-08-05T04:13:18.583Z,0.25
2022-08-05T04:15:52.599Z,0.40
2022-08-05T04:18:30.285Z,0.37
2022-08-05T04:20:57.661Z,0.37
2022-08-05T04:24:04.960Z,0.28
2022-08-05T04:26:14.285Z,0.30
2022-08-05T04:28:51.235Z,0.25
2022-08-05T04:31:19.894Z,0.40
2022-08-05T04:34:17.119Z,0.30
2022-08-05T04:36:45.892Z,0.57
2022-08-05T04:39:15.926Z,0.40
2022-08-05T04:41:42.537Z,0.30
2022-08-05T04:44:10.693Z,0.30
2022-08-05T04:46:38.491Z,0.30
2022-08-05T04:49:12.139Z,0.45
2022-08-05T04:51:41.027Z,0.35
2022-08-05T04:54:09.340Z,0.30
2022-08-05T04:56:37.338Z,0.40
2022-08-05T04:59:21.667Z,0.30
2022-08-05T05:02:35.198Z,0.40
2022-08-05T05:04:38.382Z,0.30
2022-08-05T05:07:11.613Z,0.30
2022-08-05T05:09:42.283Z,0.22
2022-08-05T05:12:11.534Z,0.20
2022-08-05T05:14:38.073Z,0.20
2022-08-05T05:17:22.734Z,0.30
2022-08-05T05:19:50.432Z,0.37
2022-08-05T05:22:23.591Z,0.20
2022-08-05T05:24:56.916Z,0.50
2022-08-05T05:27:41.600Z,0.40
2022-08-05T05:30:30.659Z,0.60
2022-08-05T05:33:14.104Z,0.40
2022-08-05T05:35:43.621Z,0.85
2022-08-05T05:38:13.374Z,0.53
2022-08-05T05:40:43.846Z,0.40
2022-08-05T05:43:27.806Z,0.52
2022-08-05T05:46:05.085Z,0.30
2022-08-05T05:48:32.476Z,0.40
2022-08-05T05:51:14.753Z,0.50
2022-08-05T05:53:54.665Z,0.68
2022-08-05T05:56:32.825Z,0.40
2022-08-05T05:59:06.695Z,0.60
2022-08-05T06:01:37.495Z,0.93
2022-08-05T06:04:11.871Z,0.53
2022-08-05T06:06:42.887Z,0.45
2022-08-05T06:09:16.603Z,0.50
2022-08-05T06:11:59.259Z,0.50
2022-08-05T06:14:27.985Z,0.50
2022-08-05T06:16:55.245Z,0.80
2022-08-05T06:19:32.916Z,0.50
2022-08-05T06:22:03.108Z,0.60
2022-08-05T06:24:29.660Z,0.60
2022-08-05T06:26:57.428Z,1.08
2022-08-05T06:29:46.948Z,0.60
2022-08-05T06:32:25.037Z,0.60
2022-08-05T06:34:56.838Z,0.60
2022-08-05T06:37:52.276Z,1.00
2022-08-05T06:40:11.898Z,0.85
2022-08-05T06:42:39.885Z,0.93
2022-08-05T06:45:08.909Z,0.88
2022-08-05T06:48:37.245Z,0.90
2022-08-05T06:50:22.949Z,1.15
2022-08-05T06:53:03.971Z,1.10
2022-08-05T06:55:36.836Z,1.30
2022-08-05T06:58:19.938Z,2.00
2022-08-05T07:00:50.928Z,1.23
2022-08-05T07:03:17.858Z,1.85
2022-08-05T07:05:44.715Z,1.35
2022-08-05T07:08:12.771Z,1.47
2022-08-05T07:10:53.379Z,1.40
2022-08-05T07:13:57.628Z,1.45
2022-08-05T07:17:56.727Z,1.40
2022-08-05T07:20:16.898Z,1.65
2022-08-05T07:22:17.587Z,1.70
2022-08-05T07:24:52.650Z,1.55
2022-08-05T07:27:20.335Z,1.58
2022-08-05T07:30:22.250Z,1.60
2022-08-05T07:32:38.695Z,1.60
2022-08-05T07:36:04.525Z,1.57
2022-08-05T07:37:55.946Z,1.60
2022-08-05T07:40:27.111Z,1.73
2022-08-05T07:42:59.461Z,2.05
2022-08-05T07:45:58.014Z,1.90
2022-08-05T07:49:00.564Z,1.70
2022-08-05T07:51:04.796Z,1.80
2022-08-05T07:53:50.522Z,1.77
2022-08-05T07:57:00.441Z,1.70
2022-08-05T07:59:04.676Z,1.70
2022-08-05T08:01:34.970Z,1.80
2022-08-05T08:04:03.127Z,1.90
2022-08-05T08:06:32.643Z,1.80
2022-08-05T08:08:59.806Z,2.97
2022-08-05T08:11:49.519Z,1.80
2022-08-05T08:14:18.203Z,2.40
2022-08-05T08:16:50.993Z,2.00
2022-08-05T08:20:21.494Z,2.12
2022-08-05T08:22:04.827Z,1.87
2022-08-05T08:24:51.525Z,2.12
2022-08-05T08:27:18.491Z,2.30
2022-08-05T08:30:03.608Z,2.22
2022-08-05T08:32:34.231Z,2.35
2022-08-05T08:35:07.356Z,2.10
2022-08-05T08:37:40.323Z,2.25
2022-08-05T08:40:11.999Z,2.30
2022-08-05T08:42:50.345Z,2.12
2022-08-05T08:45:26.977Z,2.20
2022-08-05T08:48:10.461Z,2.50
2022-08-05T08:51:07.746Z,2.50
2022-08-05T08:53:36.421Z,2.93
2022-08-05T08:56:06.030Z,2.30
2022-08-05T08:58:43.949Z,2.22
2022-08-05T09:01:15.883Z,2.50
2022-08-05T09:03:46.176Z,2.42
2022-08-05T09:06:18.514Z,2.77
2022-08-05T09:08:47.458Z,2.90
2022-08-05T09:11:15.383Z,2.40
2022-08-05T09:14:00.888Z,2.60
2022-08-05T09:16:32.259Z,2.40
2022-08-05T09:18:59.633Z,2.73
2022-08-05T09:22:22.143Z,2.80
2022-08-05T09:24:15.438Z,2.67
2022-08-05T09:26:43.763Z,2.85
2022-08-05T09:29:10.635Z,2.45
2022-08-05T09:32:46.501Z,2.37
2022-08-05T09:34:47.200Z,2.90
2022-08-05T09:38:13.030Z,2.58
2022-08-05T09:40:07.790Z,2.65
2022-08-05T09:42:43.673Z,2.92
2022-08-05T09:46:04.525Z,3.40
2022-08-05T09:48:01.552Z,3.00
2022-08-05T09:50:44.800Z,3.33
2022-08-05T09:53:22.981Z,2.95
2022-08-05T09:56:04.673Z,3.20
2022-08-05T09:58:37.984Z,3.13
2022-08-05T10:01:14.649Z,3.20
2022-08-05T10:04:00.137Z,2.90
2022-08-05T10:06:27.916Z,3.20
2022-08-05T10:08:55.638Z,3.50
2022-08-05T10:11:22.926Z,3.30
2022-08-05T10:13:49.567Z,3.20
2022-08-05T10:16:29.935Z,3.28
2022-08-05T10:18:56.570Z,3.20
2022-08-05T10:21:23.922Z,3.20
2022-08-05T10:23:58.775Z,3.30
2022-08-05T10:26:32.375Z,3.20
2022-08-05T10:28:59.380Z,3.15
2022-08-05T10:32:55.165Z,3.50
2022-08-05T10:34:12.431Z,3.30
2022-08-05T10:36:41.389Z,3.57
2022-08-05T10:39:15.340Z,3.40
2022-08-05T10:42:14.503Z,3.30
2022-08-05T10:44:46.140Z,3.60
2022-08-05T10:47:26.805Z,3.37
2022-08-05T10:50:32.863Z,3.20
2022-08-05T10:53:04.017Z,3.40
2022-08-05T10:55:38.443Z,3.47
2022-08-05T10:58:20.539Z,3.60
2022-08-05T11:00:48.120Z,3.40
2022-08-05T11:03:25.226Z,3.60
2022-08-05T11:06:20.065Z,3.45
2022-08-05T11:09:24.478Z,3.60
2022-08-05T11:12:06.329Z,3.60
2022-08-05T11:18:00.118Z,3.40
2022-08-05T11:20:41.556Z,4.03
2022-08-05T11:24:02.818Z,3.72
2022-08-05T11:26:28.626Z,3.20
2022-08-05T11:29:06.675Z,3.42
2022-08-05T11:31:56.271Z,3.43
2022-08-05T11:34:51.257Z,3.70
2022-08-05T11:38:28.889Z,3.30
2022-08-05T11:41:12.970Z,3.50
2022-08-05T11:44:05.874Z,3.40
2022-08-05T11:46:37.528Z,3.60
2022-08-05T11:49:05.487Z,3.42
2022-08-05T11:51:44.410Z,3.10
2022-08-05T11:54:33.720Z,3.80
2022-08-05T11:57:08.561Z,3.33
